createdAt,value
2023-01-21T00:03:45.008Z,-2.6
2023-01-21T00:08:55.584Z,-3
2023-01-21T00:14:07.809Z,-3.3
2023-01-21T00:19:21.853Z,-3.3
2023-01-21T00:24:29.742Z,-3.3
2023-01-21T00:29:40.995Z,-3.4
2023-01-21T00:34:52.766Z,-3.5
2023-01-21T00:40:06.457Z,-3.5
2023-01-21T00:45:17.832Z,-3.5
2023-01-21T00:50:29.520Z,-3.5
2023-01-21T01:01:11.553Z,-3.4
2023-01-21T01:06:23.750Z,-3.4
2023-01-21T01:11:37.347Z,-3.4
2023-01-21T01:16:53.335Z,-3.4
2023-01-21T01:22:05.116Z,-3.3
2023-01-21T01:27:16.248Z,-3.7
2023-01-21T01:32:32.030Z,-3.7
2023-01-21T01:37:47.664Z,-3.7
2023-01-21T01:43:04.868Z,-3.7
2023-01-21T01:48:16.514Z,-3.5
2023-01-21T01:53:32.250Z,-3.5
2023-01-21T01:58:43.904Z,-3.4
2023-01-21T02:03:56.628Z,-3.4
2023-01-21T02:14:36.328Z,-3.4
2023-01-21T02:25:18.477Z,-3.3
2023-01-21T02:30:30.910Z,-3.3
2023-01-21T02:35:42.819Z,-3.3
2023-01-21T02:41:06.741Z,-3.3
2023-01-21T02:46:12.133Z,-3.3
2023-01-21T03:02:27.089Z,-3.3
2023-01-21T03:07:36.597Z,-3.3
2023-01-21T03:28:59.647Z,-3.2
2023-01-21T03:34:11.345Z,-3.3
2023-01-21T03:55:31.892Z,-3.5
2023-01-21T04:00:40.248Z,-3.3
2023-01-21T04:22:20.866Z,-3.2
2023-01-21T04:32:58.932Z,-3.3
2023-01-21T04:38:10.710Z,-3.3
2023-01-21T04:43:25.939Z,-3.3
2023-01-21T04:48:35.174Z,-3.2
2023-01-21T04:53:52.877Z,-3.2
2023-01-21T05:04:24.898Z,-3.3
2023-01-21T05:09:37.548Z,-3.3
2023-01-21T05:14:51.362Z,-3.3
2023-01-21T05:20:07.072Z,-3.3
2023-01-21T05:30:44.933Z,-3.4
2023-01-21T05:35:52.188Z,-3.4
2023-01-21T05:41:10.959Z,-3.4
2023-01-21T05:46:16.618Z,-3.3
2023-01-21T05:51:32.109Z,-3.3
2023-01-21T05:56:41.807Z,-3.3
2023-01-21T06:18:22.437Z,-3.3
2023-01-21T06:23:34.270Z,-3.3
2023-01-21T06:28:45.407Z,-3.3
2023-01-21T06:39:20.562Z,-3.3
2023-01-21T06:50:03.600Z,-3.3
2023-01-21T07:06:04.669Z,-3.7
2023-01-21T07:11:18.363Z,-3.7
2023-01-21T07:16:29.264Z,-3.8
2023-01-21T07:27:10.361Z,-3.6
2023-01-21T07:48:48.668Z,-3.2
2023-01-21T07:59:25.207Z,-3
2023-01-21T08:04:37.601Z,-3
2023-01-21T08:09:53.172Z,-3
2023-01-21T08:31:15.167Z,-2.3
2023-01-21T08:36:27.782Z,-2.3
2023-01-21T08:46:59.352Z,-2.4
2023-01-21T08:52:09.485Z,-2.2
2023-01-21T08:57:22.538Z,-2.2
2023-01-21T09:13:29.545Z,-2.2
2023-01-21T09:18:40.340Z,-2.2
2023-01-21T09:23:53.382Z,-2.1
2023-01-21T09:29:10.006Z,-2.1
2023-01-21T09:39:42.418Z,-2.2
2023-01-21T10:01:16.418Z,-2
2023-01-21T10:11:56.540Z,-1.7
2023-01-21T10:22:34.776Z,-1
2023-01-21T10:27:42.920Z,-0.9
2023-01-21T10:32:59.268Z,-0.9
2023-01-21T10:38:09.618Z,-1.3
2023-01-21T10:43:23.118Z,-1.3
2023-01-21T10:48:34.803Z,-0.9
2023-01-21T10:53:50.623Z,-0.9
2023-01-21T10:59:06.501Z,-0.9
2023-01-21T11:04:19.097Z,-0.5
2023-01-21T11:09:32.257Z,-0.4
2023-01-21T11:14:44.264Z,-0.6
2023-01-21T11:30:52.868Z,-0.5
2023-01-21T11:35:54.151Z,-0.3
2023-01-21T11:41:11.278Z,-0.3
2023-01-21T11:46:19.574Z,0.2
2023-01-21T11:51:31.678Z,0.2
2023-01-21T12:07:34.135Z,0.2
2023-01-21T12:28:49.367Z,-0.6
2023-01-21T12:34:08.209Z,-0.6
2023-01-21T12:44:46.136Z,-0.6
2023-01-21T12:49:57.455Z,-0.9
2023-01-21T12:55:10.544Z,-0.6
2023-01-21T13:05:42.456Z,-0.9
2023-01-21T13:16:19.268Z,-0.9
2023-01-21T13:26:53.218Z,-0.9
2023-01-21T13:32:05.548Z,-1.1
2023-01-21T13:37:20.588Z,-1.1
2023-01-21T13:42:47.917Z,-1.1
2023-01-21T13:58:47.187Z,-1.1
2023-01-21T14:09:24.777Z,-1.2
2023-01-21T14:14:34.142Z,-1.2
2023-01-21T14:19:48.876Z,-1.3
2023-01-21T14:41:01.391Z,-1.4
2023-01-21T14:51:33.286Z,-1.5
2023-01-21T14:56:42.504Z,-1.4
2023-01-21T15:07:24.616Z,-1.4
2023-01-21T15:12:33.195Z,-1.4
2023-01-21T15:17:44.739Z,-1.5
2023-01-21T15:23:03.881Z,-1.5
2023-01-21T15:28:16.432Z,-1.5
2023-01-21T15:33:27.440Z,-1.7
2023-01-21T15:38:38.860Z,-1.7
2023-01-21T15:43:58.298Z,-1.7
2023-01-21T15:49:09.820Z,-1.8
2023-01-21T15:54:22.671Z,-1.8
2023-01-21T16:04:54.240Z,-1.9
2023-01-21T16:10:08.364Z,-1.9
2023-01-21T16:15:21.376Z,-1.9
2023-01-21T16:25:54.244Z,-1.9
2023-01-21T16:52:31.562Z,-2
2023-01-21T17:03:12.137Z,-2
2023-01-21T17:08:28.979Z,-2
2023-01-21T17:13:39.461Z,-2.2
2023-01-21T17:29:46.089Z,-2.2
2023-01-21T17:34:58.657Z,-2.3
2023-01-21T17:40:09.852Z,-2.2
2023-01-21T17:45:32.644Z,-2.2
2023-01-21T17:50:46.765Z,-2.2
2023-01-21T17:55:55.791Z,-2.2
2023-01-21T18:01:13.340Z,-2.2
2023-01-21T18:06:32.365Z,-2.2
2023-01-21T18:11:41.253Z,-2.1
2023-01-21T18:16:56.789Z,-2.1
2023-01-21T18:22:12.951Z,-2.1
2023-01-21T18:32:48.684Z,-2.1
2023-01-21T18:38:04.575Z,-2.1
2023-01-21T18:43:20.230Z,-2.1
2023-01-21T18:48:32.080Z,-2.1
2023-01-21T18:53:44.968Z,-2.1
2023-01-21T18:58:56.832Z,-2.1
2023-01-21T19:04:11.060Z,-2.1
2023-01-21T19:09:21.430Z,-2.2
2023-01-21T19:19:55.230Z,-2.2
2023-01-21T19:25:12.122Z,-2.2
2023-01-21T19:30:35.696Z,-2.2
2023-01-21T19:35:42.510Z,-2.2
2023-01-21T19:40:54.726Z,-2.2
2023-01-21T19:51:36.370Z,-2.2
2023-01-21T20:07:39.355Z,-2.2
2023-01-21T20:13:00.212Z,-2.2
2023-01-21T20:18:15.545Z,-2.3
2023-01-21T20:23:35.985Z,-2.3
2023-01-21T20:28:54.716Z,-2.3
2023-01-21T20:34:18.364Z,-2.3
2023-01-21T20:39:33.767Z,-2.3
2023-01-21T20:44:54.802Z,-2.3
2023-01-21T20:50:04.110Z,-2.3
2023-01-21T20:55:25.164Z,-2.3
2023-01-21T21:00:37.554Z,-2.3
2023-01-21T21:05:53.339Z,-2.3
2023-01-21T21:11:12.852Z,-2.3
2023-01-21T21:16:34.264Z,-2.2
2023-01-21T21:21:48.523Z,-2.2
2023-01-21T21:27:04.068Z,-2.2
2023-01-21T21:32:14.807Z,-2.2
2023-01-21T21:37:30.040Z,-2.2
2023-01-21T21:42:45.252Z,-2.2
2023-01-21T21:47:57.093Z,-2.2
2023-01-21T21:58:33.705Z,-2.2
2023-01-21T22:03:47.707Z,-2.2
2023-01-21T22:08:59.532Z,-2.2
2023-01-21T22:14:15.303Z,-2.2
2023-01-21T22:19:29.760Z,-2.2
2023-01-21T22:24:47.609Z,-2.2
2023-01-21T22:29:57.334Z,-2.2
2023-01-21T22:40:28.212Z,-2.2
2023-01-21T22:51:00.764Z,-2.2
2023-01-21T22:56:23.540Z,-2.2
2023-01-21T23:01:36.496Z,-2.2
2023-01-21T23:06:51.045Z,-2.2
2023-01-21T23:12:02.770Z,-2.2
2023-01-21T23:17:19.504Z,-2.2
2023-01-21T23:28:10.796Z,-2.2
2023-01-21T23:33:18.744Z,-1.2
2023-01-21T23:38:31.178Z,-0.5
2023-01-21T23:43:46.589Z,-0.5
2023-01-21T23:48:56.913Z,-1.6
2023-01-21T23:54:09.677Z,-1.6
2023-01-21T23:59:21.802Z,-1.9
